Verona, Ohio
Current Conditions -  °F | °C
As of 4:56 PM on Monday 20 Oct 2014 (Local Time) from KDAY Reporting Station
Broken Clouds Broken Clouds  
Wind Chill: 59°   Ceiling: 4800
Heat Index: 59°   Visibility: 10mi
Dew Point: 54°   Wind: 10mph
Humidity: 83%   Direction: 210°SSW
Pressure: 29.85"   Gusts: NA
Location:  39.9°N, 84.49°W
Report Text: KDAY 202056Z 21009KT 10SM SCT032 BKN048 15/12 A2985 RMK AO2 SLP107 60015 T01500122 56009
Loading
Personal Weather Stations






























Interactive Weather Map
Tropical Storm Tracking
New forecast layout! Learn more

10-Day Weather Forecast

Advertisements
Track Severe Weather on mobile